Time;durP1;ratioP1;P1;durP2;ratioP2;P2;SDS_P1;SDS_P2;PMS_P1;PMS_P2;Temp;Humidity;BMP_temperature;BMP_pressure;BME280_temperature;BME280_humidity;BME280_pressure;Samples;Min_cycle;Max_cycle;Signal;HPM_P1;HPM_P2
2022/09/13 00:00:51;;;;;;;6.32;4.38;;;17.70;48.90;;;;;;5031711;28;20806;-43
2022/09/13 00:03:18;;;;;;;6.00;3.83;;;17.70;48.90;;;;;;5032040;28;20170;-45
2022/09/13 00:05:44;;;;;;;7.57;4.20;;;17.70;49.00;;;;;;5031441;28;20652;-43
2022/09/13 00:08:10;;;;;;;5.63;3.90;;;17.70;48.90;;;;;;5031737;28;20317;-44
2022/09/13 00:10:38;;;;;;;5.85;4.05;;;17.70;49.10;;;;;;5031440;28;20259;-44
2022/09/13 00:13:05;;;;;;;8.73;3.90;;;17.70;48.90;;;;;;5031968;28;20181;-44
2022/09/13 00:15:32;;;;;;;6.32;4.28;;;17.70;48.70;;;;;;5031592;28;20257;-45
2022/09/13 00:17:58;;;;;;;7.50;4.00;;;17.60;48.60;;;;;;5034034;28;20184;-45
2022/09/13 00:20:23;;;;;;;4.28;3.88;;;17.60;48.70;;;;;;5035671;28;20689;-45
2022/09/13 00:22:49;;;;;;;5.30;4.80;;;17.60;48.80;;;;;;5035764;28;20292;-45
2022/09/13 00:25:15;;;;;;;4.47;4.07;;;17.60;48.70;;;;;;5035245;28;20997;-44
2022/09/13 00:27:41;;;;;;;4.80;3.80;;;17.60;48.70;;;;;;5035502;28;20170;-44
2022/09/13 00:30:08;;;;;;;10.63;4.53;;;17.50;48.90;;;;;;5035296;28;20684;-43
2022/09/13 00:32:34;;;;;;;5.18;4.72;;;17.50;48.80;;;;;;5035227;28;20650;-44
2022/09/13 00:35:02;;;;;;;5.32;4.93;;;17.50;48.70;;;;;;5035226;28;20272;-45
2022/09/13 00:37:27;;;;;;;3.90;3.60;;;17.50;48.80;;;;;;5035311;28;20265;-44
2022/09/13 00:39:53;;;;;;;6.67;5.03;;;17.50;48.80;;;;;;5035220;28;20288;-43
2022/09/13 00:42:25;;;;;;;4.50;4.10;;;17.40;48.70;;;;;;5035086;28;20411;-45
2022/09/13 00:44:58;;;;;;;6.32;4.38;;;17.40;48.70;;;;;;5035295;28;20285;-44
2022/09/13 00:47:32;;;;;;;8.20;3.95;;;17.50;48.80;;;;;;5034899;28;20245;-45
2022/09/13 00:50:06;;;;;;;4.63;4.20;;;17.40;48.70;;;;;;5035285;28;20220;-45
2022/09/13 00:52:34;;;;;;;6.57;4.53;;;17.40;48.60;;;;;;5035061;28;20185;-45
2022/09/13 00:55:15;;;;;;;4.95;4.40;;;17.40;48.70;;;;;;5035181;28;20213;-46
2022/09/13 00:57:41;;;;;;;4.88;4.30;;;17.30;48.70;;;;;;5034694;28;20560;-44
2022/09/13 01:00:13;;;;;;;3.40;3.10;;;17.30;48.70;;;;;;5034985;28;20206;-45
2022/09/13 01:02:42;;;;;;;4.10;3.72;;;17.30;48.70;;;;;;5034737;28;20621;-44
2022/09/13 01:05:09;;;;;;;4.15;3.75;;;17.30;48.70;;;;;;5034722;28;20256;-44
2022/09/13 01:07:36;;;;;;;4.40;4.00;;;17.30;49.60;;;;;;5034407;28;20263;-44
2022/09/13 01:10:06;;;;;;;5.20;4.68;;;17.20;48.90;;;;;;5034361;28;20213;-46
2022/09/13 01:13:13;;;;;;;4.63;4.20;;;17.30;49.00;;;;;;5034789;28;20181;-45
2022/09/13 01:15:40;;;;;;;6.90;4.40;;;17.20;48.90;;;;;;5034359;28;20189;-45
2022/09/13 01:18:07;;;;;;;8.35;5.70;;;17.20;49.00;;;;;;5034750;28;20174;-44
2022/09/13 01:21:11;;;;;;;6.20;4.53;;;17.20;49.10;;;;;;5034515;28;20206;-44
2022/09/13 01:23:55;;;;;;;4.25;3.85;;;17.20;49.00;;;;;;5034184;28;20180;-44
2022/09/13 01:26:30;;;;;;;6.93;5.47;;;17.20;49.10;;;;;;5034425;28;20165;-44
2022/09/13 01:29:14;;;;;;;6.20;4.50;;;17.10;49.10;;;;;;5033550;28;20208;-44
2022/09/13 01:32:06;;;;;;;4.88;4.40;;;17.10;49.10;;;;;;5034220;28;20526;-44
2022/09/13 01:34:50;;;;;;;4.13;3.67;;;17.10;49.10;;;;;;5034145;28;20182;-45
2022/09/13 01:37:26;;;;;;;10.55;4.20;;;17.10;49.20;;;;;;5033858;28;20174;-44
2022/09/13 01:40:15;;;;;;;4.70;4.30;;;17.00;49.10;;;;;;5033988;28;20220;-44
2022/09/13 01:42:47;;;;;;;8.43;5.05;;;17.00;49.10;;;;;;5034114;28;20227;-44
2022/09/13 01:45:48;;;;;;;5.05;3.80;;;17.10;49.10;;;;;;5033915;28;20196;-44
2022/09/13 01:48:38;;;;;;;4.22;3.58;;;17.10;49.00;;;;;;5023193;28;20201;-45
2022/09/13 01:51:27;;;;;;;4.15;3.75;;;17.00;48.90;;;;;;5033984;28;20190;-43
2022/09/13 01:54:03;;;;;;;6.00;3.50;;;17.00;49.00;;;;;;5033768;28;20654;-44
2022/09/13 01:56:33;;;;;;;5.68;3.60;;;17.00;49.10;;;;;;5033794;28;20299;-44
2022/09/13 01:59:09;;;;;;;6.15;4.63;;;17.00;49.10;;;;;;5033741;28;20576;-45
2022/09/13 02:01:49;;;;;;;5.07;4.57;;;17.00;48.90;;;;;;5033756;28;20173;-44
2022/09/13 02:04:26;;;;;;;7.18;4.75;;;16.90;49.00;;;;;;5033823;28;20242;-44
2022/09/13 02:07:12;;;;;;;4.22;3.92;;;16.90;48.90;;;;;;5033488;28;20523;-44
2022/09/13 02:09:42;;;;;;;6.03;3.80;;;16.90;49.10;;;;;;5033295;28;20220;-44
2022/09/13 02:12:21;;;;;;;5.50;3.90;;;16.90;49.10;;;;;;5033453;28;20531;-44
2022/09/13 02:15:08;;;;;;;5.13;4.63;;;16.80;49.00;;;;;;5033652;28;20267;-44
2022/09/13 02:17:42;;;;;;;6.32;4.28;;;16.80;48.80;;;;;;5033150;28;20713;-44
2022/09/13 02:20:32;;;;;;;5.00;4.15;;;16.80;49.10;;;;;;5033338;28;20296;-45
2022/09/13 02:23:02;;;;;;;4.60;4.10;;;16.80;49.00;;;;;;5033109;28;20379;-45
2022/09/13 02:25:31;;;;;;;6.50;5.13;;;16.80;49.10;;;;;;5033004;28;20605;-46
2022/09/13 02:28:02;;;;;;;4.50;3.72;;;16.70;49.10;;;;;;5033076;28;20188;-43
2022/09/13 02:30:30;;;;;;;6.28;4.43;;;16.70;49.00;;;;;;5033113;28;20197;-44
2022/09/13 02:33:25;;;;;;;5.00;3.85;;;16.60;49.00;;;;;;5033316;28;20178;-43
2022/09/13 02:35:59;;;;;;;5.63;5.03;;;16.60;49.00;;;;;;5028700;28;20644;-44
2022/09/13 02:38:36;;;;;;;11.13;4.60;;;16.60;49.00;;;;;;5032953;28;20696;-43
2022/09/13 02:41:17;;;;;;;6.45;4.55;;;16.60;49.10;;;;;;5031898;28;20200;-44
2022/09/13 02:43:50;;;;;;;7.13;4.15;;;16.60;49.10;;;;;;5033010;28;20165;-44
2022/09/13 02:46:54;;;;;;;4.95;4.50;;;16.60;49.00;;;;;;5032921;28;20235;-44
2022/09/13 02:49:41;;;;;;;4.72;4.30;;;16.60;49.00;;;;;;5032860;28;20291;-44
2022/09/13 02:52:28;;;;;;;5.05;4.35;;;16.50;48.90;;;;;;5032949;28;20173;-44
2022/09/13 02:54:54;;;;;;;6.47;4.13;;;16.50;49.00;;;;;;5032894;28;20269;-45
2022/09/13 02:57:25;;;;;;;4.60;3.77;;;16.50;49.00;;;;;;5032472;28;20265;-45
2022/09/13 02:59:51;;;;;;;6.25;4.50;;;16.50;49.00;;;;;;5032571;28;20690;-43
2022/09/13 03:02:21;;;;;;;6.63;5.93;;;16.50;49.10;;;;;;5032563;28;20253;-44
2022/09/13 03:04:50;;;;;;;6.85;4.75;;;16.50;49.10;;;;;;5032623;28;20205;-43
2022/09/13 03:07:15;;;;;;;5.70;5.20;;;16.50;49.10;;;;;;5032256;28;20265;-43
2022/09/13 03:09:54;;;;;;;5.63;4.50;;;16.50;49.10;;;;;;5032482;28;20288;-43
2022/09/13 03:12:38;;;;;;;4.07;3.60;;;16.50;49.00;;;;;;5032407;28;20178;-43
2022/09/13 03:15:30;;;;;;;5.95;4.30;;;16.40;49.00;;;;;;5032339;28;20220;-44
2022/09/13 03:18:20;;;;;;;5.28;3.90;;;16.40;49.10;;;;;;5032496;28;20240;-44
2022/09/13 03:21:06;;;;;;;5.55;3.90;;;16.40;49.10;;;;;;5032195;28;20677;-43
2022/09/13 03:23:35;;;;;;;4.85;4.00;;;16.40;49.10;;;;;;5032988;28;20181;-43
2022/09/13 03:26:23;;;;;;;5.90;4.90;;;16.30;49.30;;;;;;5032995;28;20181;-44
2022/09/13 03:28:58;;;;;;;11.07;5.13;;;16.40;49.20;;;;;;5033179;28;20188;-45
2022/09/13 03:31:36;;;;;;;8.07;5.63;;;16.40;49.50;;;;;;5033281;28;20328;-44
2022/09/13 03:34:07;;;;;;;8.32;6.22;;;16.40;49.50;;;;;;5033184;28;20188;-43
2022/09/13 03:36:45;;;;;;;7.50;5.53;;;16.40;49.60;;;;;;5032618;28;20697;-45
2022/09/13 03:39:28;;;;;;;5.00;4.50;;;16.40;49.70;;;;;;5032720;28;20177;-44
2022/09/13 03:41:58;;;;;;;6.25;5.38;;;16.40;49.80;;;;;;5032359;28;20216;-43
2022/09/13 03:44:27;;;;;;;6.80;5.57;;;16.40;49.90;;;;;;5032198;28;20264;-43
2022/09/13 03:46:57;;;;;;;6.00;5.45;;;16.40;50.00;;;;;;5031886;28;20232;-45
2022/09/13 03:49:26;;;;;;;5.80;5.28;;;16.40;50.00;;;;;;5031949;28;20265;-45
2022/09/13 03:51:52;;;;;;;5.88;5.28;;;16.50;50.30;;;;;;5032795;28;20178;-45
2022/09/13 03:54:26;;;;;;;4.60;4.20;;;16.50;50.20;;;;;;5036259;28;20236;-46
2022/09/13 03:57:11;;;;;;;7.47;5.00;;;16.50;50.40;;;;;;5035718;28;20169;-44
2022/09/13 03:59:40;;;;;;;6.18;5.32;;;16.60;50.20;;;;;;5035812;28;20608;-44
2022/09/13 04:02:09;;;;;;;6.95;5.93;;;16.50;50.30;;;;;;5035949;28;20601;-44
2022/09/13 04:04:35;;;;;;;5.75;4.90;;;16.50;50.20;;;;;;5035731;28;20201;-46
2022/09/13 04:07:03;;;;;;;5.67;4.07;;;16.60;50.20;;;;;;5035515;28;20674;-44
2022/09/13 04:09:30;;;;;;;5.70;5.10;;;16.60;50.20;;;;;;5035720;28;20285;-45
2022/09/13 04:11:56;;;;;;;6.18;5.25;;;16.60;50.20;;;;;;5035721;28;20623;-45
2022/09/13 04:14:25;;;;;;;5.10;4.57;;;16.50;50.10;;;;;;5035633;28;20182;-45
2022/09/13 04:16:52;;;;;;;6.22;5.63;;;16.50;50.00;;;;;;5035676;28;20416;-45
2022/09/13 04:19:18;;;;;;;6.25;4.10;;;16.60;49.90;;;;;;5035732;28;20193;-44
2022/09/13 04:21:47;;;;;;;7.43;4.80;;;16.60;49.90;;;;;;5035743;28;20181;-46
2022/09/13 04:24:14;;;;;;;5.40;4.90;;;16.50;49.70;;;;;;5035333;28;20205;-43
2022/09/13 04:26:39;;;;;;;5.60;4.68;;;16.50;49.60;;;;;;5035493;28;20212;-43
2022/09/13 04:29:05;;;;;;;5.13;4.63;;;16.50;49.70;;;;;;5035391;28;20642;-45
2022/09/13 04:31:31;;;;;;;6.30;4.50;;;16.50;49.80;;;;;;5035275;28;20169;-45
2022/09/13 04:33:57;;;;;;;6.80;5.20;;;16.50;49.80;;;;;;5035290;28;20181;-44
2022/09/13 04:36:23;;;;;;;4.88;4.47;;;16.50;49.80;;;;;;5035072;28;20174;-43
2022/09/13 04:38:49;;;;;;;6.23;4.70;;;16.50;49.60;;;;;;5035155;28;20610;-45
2022/09/13 04:41:16;;;;;;;7.00;4.55;;;16.50;49.70;;;;;;5035319;28;20225;-44
2022/09/13 04:43:42;;;;;;;4.95;4.45;;;16.50;49.60;;;;;;5034954;28;20205;-44
2022/09/13 04:46:08;;;;;;;6.28;4.65;;;16.50;49.60;;;;;;5034844;28;20235;-44
2022/09/13 04:48:34;;;;;;;7.13;4.40;;;16.40;49.60;;;;;;5035045;28;20181;-44
2022/09/13 04:51:04;;;;;;;6.10;4.93;;;16.40;49.80;;;;;;5034848;28;20202;-44
2022/09/13 04:53:30;;;;;;;7.40;5.72;;;16.40;49.90;;;;;;5034946;28;20650;-44
2022/09/13 04:56:01;;;;;;;12.00;5.63;;;16.40;49.80;;;;;;5034797;28;20579;-44
2022/09/13 04:58:26;;;;;;;5.90;4.50;;;16.40;49.90;;;;;;5034840;28;20727;-46
2022/09/13 05:00:55;;;;;;;8.00;6.00;;;16.40;50.00;;;;;;5035059;28;20292;-44
2022/09/13 05:03:22;;;;;;;5.05;4.65;;;16.40;50.60;;;;;;5033868;28;20209;-45
2022/09/13 05:05:47;;;;;;;7.57;5.28;;;16.40;50.00;;;;;;5034305;28;20229;-44
2022/09/13 05:08:13;;;;;;;6.33;5.47;;;16.40;50.00;;;;;;5034646;28;20181;-44
2022/09/13 05:10:39;;;;;;;6.60;5.43;;;16.40;50.20;;;;;;5034307;28;20209;-45
2022/09/13 05:13:04;;;;;;;6.43;5.33;;;16.40;50.30;;;;;;5034666;28;20319;-44
2022/09/13 05:15:30;;;;;;;12.03;6.40;;;16.50;50.50;;;;;;5034354;28;20174;-44
2022/09/13 05:17:56;;;;;;;6.33;4.37;;;16.50;50.40;;;;;;5034360;28;20258;-44
2022/09/13 05:20:22;;;;;;;5.93;5.43;;;16.50;50.60;;;;;;5034613;28;20272;-44
2022/09/13 05:22:47;;;;;;;5.97;5.37;;;16.50;50.70;;;;;;5034523;28;20280;-45
2022/09/13 05:25:13;;;;;;;7.60;6.10;;;16.60;50.80;;;;;;5034155;28;20198;-45
2022/09/13 05:27:39;;;;;;;6.87;5.57;;;16.60;50.90;;;;;;5034156;28;20261;-44
2022/09/13 05:30:05;;;;;;;11.07;6.63;;;16.70;51.10;;;;;;5034231;28;20818;-44
2022/09/13 05:32:32;;;;;;;7.13;4.85;;;16.70;51.20;;;;;;5034065;28;20180;-44
2022/09/13 05:34:57;;;;;;;8.95;7.60;;;16.80;51.00;;;;;;5034066;28;20280;-45
2022/09/13 05:37:23;;;;;;;7.03;5.80;;;16.90;51.30;;;;;;5034170;28;20216;-44
2022/09/13 05:39:49;;;;;;;5.63;5.10;;;17.00;51.70;;;;;;5034250;28;20200;-44
2022/09/13 05:42:14;;;;;;;6.97;6.27;;;17.10;51.50;;;;;;5034087;28;20181;-45
2022/09/13 05:44:40;;;;;;;8.27;6.30;;;17.20;51.40;;;;;;5034107;28;20220;-45
2022/09/13 05:47:06;;;;;;;8.07;6.30;;;17.30;51.50;;;;;;5033887;28;20668;-45
2022/09/13 05:49:31;;;;;;;7.37;4.70;;;17.40;51.50;;;;;;5033776;28;20194;-46
2022/09/13 05:51:57;;;;;;;7.43;5.53;;;17.40;51.50;;;;;;5033903;28;20177;-44
2022/09/13 05:54:23;;;;;;;8.53;6.10;;;17.50;51.50;;;;;;5033792;28;20263;-45
2022/09/13 05:56:51;;;;;;;6.20;5.60;;;17.60;51.50;;;;;;5033512;28;20186;-43
2022/09/13 05:59:17;;;;;;;6.60;5.50;;;17.70;51.60;;;;;;5033608;28;20182;-44
2022/09/13 06:01:44;;;;;;;7.47;6.40;;;17.70;51.50;;;;;;5033491;28;20193;-44
2022/09/13 06:04:11;;;;;;;7.97;6.32;;;17.80;51.50;;;;;;5034299;28;20216;-44
2022/09/13 06:06:37;;;;;;;7.13;6.40;;;17.80;51.50;;;;;;5033577;28;20232;-44
2022/09/13 06:09:05;;;;;;;7.13;6.30;;;17.90;51.60;;;;;;5033587;28;20503;-44
2022/09/13 06:11:31;;;;;;;7.68;5.88;;;18.00;51.50;;;;;;5033246;28;20652;-44
2022/09/13 06:13:56;;;;;;;7.27;6.63;;;18.10;51.50;;;;;;5033487;28;20266;-45
2022/09/13 06:16:22;;;;;;;10.07;6.27;;;18.20;51.40;;;;;;5032831;28;20273;-46
2022/09/13 06:18:48;;;;;;;8.90;6.27;;;18.30;51.60;;;;;;5033351;28;20401;-43
2022/09/13 06:21:18;;;;;;;8.52;7.38;;;18.40;51.50;;;;;;5033297;28;20224;-44
2022/09/13 06:23:45;;;;;;;7.07;6.30;;;18.50;51.60;;;;;;5033390;28;20178;-43
2022/09/13 06:26:13;;;;;;;6.63;5.50;;;18.60;51.90;;;;;;5033026;28;20652;-44
2022/09/13 06:28:40;;;;;;;7.07;5.72;;;18.80;51.70;;;;;;5033371;28;20638;-44
2022/09/13 06:31:14;;;;;;;7.72;6.53;;;18.90;51.70;;;;;;5033293;28;20225;-43
2022/09/13 06:33:42;;;;;;;10.73;6.22;;;19.00;51.50;;;;;;5033108;28;20644;-44
2022/09/13 06:36:14;;;;;;;5.93;4.85;;;19.10;51.30;;;;;;5032805;28;20178;-44
2022/09/13 06:38:40;;;;;;;6.28;5.68;;;19.20;51.00;;;;;;5033014;28;20602;-44
2022/09/13 06:41:11;;;;;;;7.60;6.32;;;19.20;51.00;;;;;;5032872;28;20201;-44
2022/09/13 06:43:38;;;;;;;9.80;6.20;;;19.20;50.90;;;;;;5032999;28;20672;-45
2022/09/13 06:46:09;;;;;;;6.00;5.43;;;19.30;50.90;;;;;;5032746;28;20170;-44
2022/09/13 06:48:37;;;;;;;6.25;5.65;;;19.30;51.00;;;;;;5033069;28;20201;-45
2022/09/13 06:51:09;;;;;;;7.07;6.15;;;19.40;51.00;;;;;;5032713;28;20220;-45
2022/09/13 06:53:36;;;;;;;7.90;6.63;;;19.50;51.10;;;;;;5032682;28;20189;-45
2022/09/13 06:56:12;;;;;;;6.30;5.70;;;19.70;51.30;;;;;;5032385;28;20223;-44
2022/09/13 06:58:40;;;;;;;8.35;6.00;;;19.80;51.00;;;;;;5032694;28;20161;-44
2022/09/13 07:01:17;;;;;;;6.40;5.65;;;19.80;50.50;;;;;;5032385;28;20554;-45
2022/09/13 07:03:58;;;;;;;7.50;5.53;;;19.90;50.40;;;;;;5032616;28;20185;-44
2022/09/13 07:06:27;;;;;;;6.40;5.10;;;20.00;50.30;;;;;;5032210;28;20192;-44
2022/09/13 07:08:54;;;;;;;8.63;5.88;;;20.00;50.40;;;;;;5032496;28;20206;-44
2022/09/13 07:11:23;;;;;;;7.03;6.28;;;20.00;50.40;;;;;;5032246;28;20581;-44
2022/09/13 07:13:53;;;;;;;6.70;4.82;;;20.10;50.50;;;;;;5032382;28;20178;-44
2022/09/13 07:16:23;;;;;;;8.23;5.43;;;20.20;50.60;;;;;;5032407;28;20188;-44
2022/09/13 07:18:57;;;;;;;6.70;6.10;;;20.30;50.40;;;;;;5032532;28;20504;-44
2022/09/13 07:21:24;;;;;;;6.07;5.47;;;20.30;50.20;;;;;;5032235;28;20196;-44
2022/09/13 07:23:51;;;;;;;6.85;5.65;;;20.30;50.20;;;;;;5032070;28;20209;-45
2022/09/13 07:26:17;;;;;;;5.68;5.18;;;20.40;50.30;;;;;;5031618;28;20193;-44
2022/09/13 07:28:45;;;;;;;6.45;5.38;;;20.40;50.20;;;;;;5032021;28;20182;-44
2022/09/13 07:31:17;;;;;;;6.20;5.60;;;20.50;50.20;;;;;;5032031;28;20662;-44
2022/09/13 07:33:44;;;;;;;8.43;5.93;;;20.50;50.20;;;;;;5032606;28;20182;-44
2022/09/13 07:36:11;;;;;;;7.95;5.07;;;20.50;50.20;;;;;;5031912;28;20161;-44
2022/09/13 07:38:44;;;;;;;7.40;5.55;;;20.60;50.30;;;;;;5032116;28;20210;-45
2022/09/13 07:41:12;;;;;;;9.55;5.47;;;20.70;50.30;;;;;;5032562;28;20244;-44
2022/09/13 07:43:38;;;;;;;7.43;5.63;;;20.70;50.20;;;;;;5032422;28;20220;-44
2022/09/13 07:46:06;;;;;;;6.90;5.63;;;20.70;50.10;;;;;;5014392;28;20178;-44
2022/09/13 07:48:34;;;;;;;6.45;5.85;;;20.80;49.90;;;;;;5032480;28;20185;-44
2022/09/13 07:51:20;;;;;;;6.50;5.90;;;20.80;49.70;;;;;;5032073;28;20195;-44
2022/09/13 07:53:47;;;;;;;7.13;5.88;;;20.80;49.50;;;;;;5032013;28;20638;-45
2022/09/13 07:56:19;;;;;;;7.80;6.70;;;20.70;49.60;;;;;;5031863;28;20180;-45
2022/09/13 07:58:46;;;;;;;5.93;5.22;;;20.70;49.70;;;;;;5031888;28;20158;-45
2022/09/13 08:01:19;;;;;;;8.45;6.43;;;20.70;50.00;;;;;;5031980;28;20585;-46
2022/09/13 08:03:51;;;;;;;7.20;6.35;;;20.70;50.10;;;;;;5031997;28;20185;-45
2022/09/13 08:06:16;;;;;;;10.13;5.78;;;20.70;50.20;;;;;;5031561;28;20182;-44
2022/09/13 08:08:42;;;;;;;6.73;5.70;;;20.70;50.50;;;;;;5031991;28;20260;-44
2022/09/13 08:11:12;;;;;;;11.33;7.10;;;20.70;50.80;;;;;;5031683;28;20628;-44
2022/09/13 08:13:38;;;;;;;6.93;6.10;;;20.60;50.80;;;;;;5031812;28;20253;-44
2022/09/13 08:16:05;;;;;;;7.15;6.45;;;20.60;50.90;;;;;;5031658;28;20178;-45
2022/09/13 08:18:31;;;;;;;8.35;6.65;;;20.60;51.00;;;;;;5031914;28;20352;-44
2022/09/13 08:20:58;;;;;;;8.75;6.38;;;20.60;51.20;;;;;;5031833;28;20659;-45
2022/09/13 08:23:24;;;;;;;8.40;6.50;;;20.60;51.70;;;;;;5031490;28;20205;-45
2022/09/13 08:25:50;;;;;;;9.13;6.13;;;20.70;52.10;;;;;;5031565;28;20290;-44
2022/09/13 08:28:20;;;;;;;11.70;7.63;;;20.70;52.40;;;;;;5031756;28;20217;-44
2022/09/13 08:30:47;;;;;;;8.18;7.13;;;20.70;52.80;;;;;;5031693;28;20672;-44
2022/09/13 08:33:13;;;;;;;8.93;7.18;;;20.80;53.20;;;;;;5031524;28;20201;-44
2022/09/13 08:35:40;;;;;;;7.97;7.10;;;20.90;53.50;;;;;;5031267;28;20186;-44
2022/09/13 08:38:06;;;;;;;9.85;8.20;;;21.00;53.50;;;;;;5032534;28;20717;-45
2022/09/13 08:40:43;;;;;;;9.35;8.15;;;21.10;53.50;;;;;;5035227;28;20202;-45
2022/09/13 08:43:16;;;;;;;8.82;7.70;;;21.10;53.30;;;;;;5035227;28;20251;-44
2022/09/13 08:45:59;;;;;;;9.85;7.85;;;21.10;53.10;;;;;;5034784;28;20208;-45
2022/09/13 08:48:33;;;;;;;9.75;8.35;;;21.10;53.50;;;;;;5034986;28;20162;-44
2022/09/13 08:51:06;;;;;;;7.80;6.77;;;21.10;53.40;;;;;;5017965;28;20207;-45
2022/09/13 08:53:46;;;;;;;7.43;6.72;;;21.20;53.20;;;;;;5035257;28;20389;-44
2022/09/13 08:56:22;;;;;;;8.48;7.50;;;21.20;53.30;;;;;;5017023;28;20653;-45
2022/09/13 08:59:14;;;;;;;10.93;7.68;;;21.20;53.40;;;;;;5034747;28;20182;-45
2022/09/13 09:01:49;;;;;;;9.90;8.47;;;21.30;53.60;;;;;;5034872;28;20170;-44
2022/09/13 09:04:35;;;;;;;8.68;6.68;;;21.30;53.40;;;;;;5034875;28;20983;-45
2022/09/13 09:07:13;;;;;;;9.23;7.60;;;21.40;53.30;;;;;;5034425;28;20170;-44
2022/09/13 09:10:16;;;;;;;7.43;6.63;;;21.40;53.40;;;;;;5034479;28;20343;-44
2022/09/13 09:13:04;;;;;;;9.27;7.03;;;21.40;53.50;;;;;;5034831;28;20403;-46
2022/09/13 09:15:42;;;;;;;7.60;6.80;;;21.40;53.60;;;;;;5034273;28;20408;-47
2022/09/13 09:18:26;;;;;;;10.75;8.27;;;21.50;53.90;;;;;;5016856;28;20405;-44
2022/09/13 09:20:58;;;;;;;11.97;7.83;;;21.50;54.10;;;;;;5034427;28;20197;-44
2022/09/13 09:23:41;;;;;;;9.80;7.47;;;21.60;53.90;;;;;;5034475;28;20396;-44
2022/09/13 09:26:22;;;;;;;9.43;7.63;;;21.60;54.20;;;;;;5034273;28;20272;-45
2022/09/13 09:28:56;;;;;;;10.10;7.43;;;21.70;54.20;;;;;;5034329;28;20388;-44
2022/09/13 09:31:41;;;;;;;11.60;7.70;;;21.70;54.20;;;;;;5034415;28;20562;-45
2022/09/13 09:34:36;;;;;;;7.45;6.63;;;21.70;54.10;;;;;;5034202;28;20436;-44
2022/09/13 09:37:14;;;;;;;8.40;7.25;;;21.80;53.60;;;;;;5034106;28;20206;-44
2022/09/13 09:39:41;;;;;;;9.27;7.97;;;21.80;53.60;;;;;;5034064;28;20565;-45
2022/09/13 09:42:17;;;;;;;9.33;8.07;;;21.90;53.90;;;;;;5034285;28;20413;-44
2022/09/13 09:44:48;;;;;;;7.70;6.80;;;22.00;53.80;;;;;;5033899;28;20459;-44
2022/09/13 09:47:21;;;;;;;8.87;7.60;;;22.10;53.90;;;;;;5033926;28;20401;-45
2022/09/13 09:50:08;;;;;;;10.07;7.67;;;22.20;53.80;;;;;;5033434;28;20412;-45
2022/09/13 09:52:55;;;;;;;10.10;7.17;;;22.30;54.10;;;;;;5033887;28;20412;-45
2022/09/13 09:55:29;;;;;;;8.37;6.93;;;22.40;54.00;;;;;;5034068;28;20396;-45
2022/09/13 09:58:00;;;;;;;8.63;7.73;;;22.60;54.10;;;;;;5033649;28;20407;-45
2022/09/13 10:00:34;;;;;;;7.47;6.60;;;22.80;53.60;;;;;;5033920;28;20460;-45
2022/09/13 10:03:04;;;;;;;7.07;6.37;;;22.90;53.40;;;;;;5033730;28;20451;-46
2022/09/13 10:05:31;;;;;;;8.17;7.33;;;23.10;53.00;;;;;;5033364;28;20459;-45
2022/09/13 10:08:04;;;;;;;8.57;7.43;;;23.30;52.90;;;;;;5033693;28;20404;-45
2022/09/13 10:10:44;;;;;;;10.30;6.50;;;23.40;52.70;;;;;;5033395;28;20506;-46
2022/09/13 10:13:17;;;;;;;9.03;6.17;;;23.60;52.40;;;;;;5033784;28;20408;-45
2022/09/13 10:16:06;;;;;;;6.50;5.40;;;23.60;51.90;;;;;;5033321;28;20405;-44
2022/09/13 10:18:36;;;;;;;7.03;6.40;;;23.80;52.00;;;;;;5033380;28;20893;-45
2022/09/13 10:21:20;;;;;;;6.90;6.20;;;23.80;51.40;;;;;;5033371;28;20436;-44
2022/09/13 10:23:49;;;;;;;8.87;5.80;;;23.90;51.70;;;;;;5033257;28;20516;-46
2022/09/13 10:26:23;;;;;;;7.50;5.17;;;23.90;51.00;;;;;;5032918;28;20413;-45
2022/09/13 10:28:59;;;;;;;7.63;6.70;;;24.00;50.70;;;;;;5033411;28;20412;-46
2022/09/13 10:31:36;;;;;;;6.83;5.70;;;24.10;51.30;;;;;;5033247;28;20428;-46
2022/09/13 10:34:06;;;;;;;7.67;5.80;;;24.10;50.50;;;;;;5033114;28;20408;-45
2022/09/13 10:36:34;;;;;;;9.57;6.90;;;24.20;50.50;;;;;;5032943;28;20393;-46
2022/09/13 10:39:02;;;;;;;6.83;6.13;;;24.20;50.70;;;;;;5033047;28;20462;-44
2022/09/13 10:41:34;;;;;;;6.77;6.10;;;24.20;50.60;;;;;;5032762;28;20835;-45
2022/09/13 10:44:05;;;;;;;6.30;5.70;;;24.30;50.40;;;;;;5033036;28;20455;-43
2022/09/13 10:46:35;;;;;;;6.90;5.90;;;24.40;50.20;;;;;;5032678;28;20885;-45
2022/09/13 10:49:01;;;;;;;7.70;5.73;;;24.50;50.50;;;;;;5033046;28;20403;-46
2022/09/13 10:51:26;;;;;;;6.40;5.70;;;24.70;50.90;;;;;;5032764;28;20832;-45
2022/09/13 10:54:21;;;;;;;6.60;6.00;;;24.90;50.70;;;;;;5032944;28;20397;-45
2022/09/13 10:56:48;;;;;;;6.70;4.67;;;25.10;49.10;;;;;;5032450;28;20642;-44
2022/09/13 10:59:16;;;;;;;6.50;4.10;;;25.20;48.50;;;;;;5032550;28;20405;-45
2022/09/13 11:02:09;;;;;;;5.20;4.07;;;25.40;48.20;;;;;;5031722;28;20397;-45
2022/09/13 11:04:50;;;;;;;4.17;3.53;;;25.60;46.50;;;;;;5032578;28;20448;-46
2022/09/13 11:07:28;;;;;;;3.50;3.20;;;25.70;43.00;;;;;;5032622;28;20393;-44
2022/09/13 11:10:13;;;;;;;3.73;2.80;;;25.90;43.10;;;;;;5032278;28;20443;-45
2022/09/13 11:12:44;;;;;;;4.20;3.40;;;26.20;43.60;;;;;;5032389;28;20535;-45
2022/09/13 11:15:21;;;;;;;4.30;3.90;;;26.30;42.40;;;;;;5032638;28;20543;-46
2022/09/13 11:18:02;;;;;;;4.40;4.00;;;26.50;43.70;;;;;;5032348;28;20757;-44
2022/09/13 11:20:54;;;;;;;4.77;3.30;;;26.80;41.60;;;;;;5032063;28;20840;-46
2022/09/13 11:23:51;;;;;;;3.87;3.47;;;27.00;42.80;;;;;;5032495;28;20389;-46
2022/09/13 11:26:34;;;;;;;2.93;2.70;;;27.10;39.50;;;;;;5031957;28;20443;-47
2022/09/13 11:29:02;;;;;;;3.37;3.07;;;27.20;40.60;;;;;;5032473;28;20389;-46
2022/09/13 11:31:48;;;;;;;3.00;2.70;;;27.30;41.30;;;;;;5032126;28;20431;-46
2022/09/13 11:34:38;;;;;;;3.30;2.97;;;27.40;38.80;;;;;;5032070;28;20714;-46
2022/09/13 11:37:31;;;;;;;3.40;3.10;;;27.60;40.70;;;;;;5032090;28;20393;-45
2022/09/13 11:40:27;;;;;;;4.50;2.73;;;27.70;40.30;;;;;;5032161;28;20511;-45
2022/09/13 11:43:19;;;;;;;4.77;3.50;;;27.90;40.00;;;;;;5032259;28;20385;-45
2022/09/13 11:46:01;;;;;;;4.20;3.07;;;28.00;38.50;;;;;;5031999;28;20486;-44
2022/09/13 11:48:48;;;;;;;3.37;2.50;;;28.00;37.90;;;;;;5032050;28;20420;-45
2022/09/13 11:51:29;;;;;;;3.40;3.10;;;28.20;37.10;;;;;;5031935;28;20784;-45
2022/09/13 11:54:24;;;;;;;5.40;3.40;;;28.30;38.20;;;;;;5031995;28;20407;-44
2022/09/13 11:57:00;;;;;;;4.03;2.83;;;28.50;37.00;;;;;;5031647;28;20453;-45
2022/09/13 11:59:33;;;;;;;5.20;3.10;;;28.60;37.30;;;;;;5031783;28;20795;-45
2022/09/13 12:02:09;;;;;;;3.03;2.73;;;28.60;36.10;;;;;;5031787;28;20935;-45
2022/09/13 12:04:49;;;;;;;3.47;3.17;;;28.70;35.50;;;;;;5031888;28;20789;-45
2022/09/13 12:07:34;;;;;;;3.53;3.20;;;28.60;34.80;;;;;;5031669;28;20381;-45
2022/09/13 12:10:15;;;;;;;4.57;3.30;;;28.60;35.30;;;;;;5031699;28;20455;-45
2022/09/13 12:12:43;;;;;;;5.50;3.43;;;28.60;36.50;;;;;;5032253;28;20397;-45
2022/09/13 12:15:21;;;;;;;4.03;3.37;;;28.70;36.10;;;;;;5036043;28;20760;-46
2022/09/13 12:18:04;;;;;;;4.03;3.50;;;28.70;36.40;;;;;;5035916;28;20830;-46
2022/09/13 12:20:43;;;;;;;3.10;2.70;;;28.70;36.80;;;;;;5036244;28;20439;-46
2022/09/13 12:23:18;;;;;;;3.20;2.90;;;28.60;35.70;;;;;;5035893;28;20400;-46
2022/09/13 12:26:22;;;;;;;3.17;2.70;;;28.70;36.60;;;;;;5035630;28;20448;-47
2022/09/13 12:28:54;;;;;;;5.07;3.30;;;28.70;34.60;;;;;;5012530;28;21071;-46
2022/09/13 12:31:29;;;;;;;2.43;2.23;;;28.70;35.50;;;;;;5035418;28;20416;-46
2022/09/13 12:33:55;;;;;;;3.20;2.60;;;28.70;34.70;;;;;;5035468;28;20446;-46
2022/09/13 12:36:58;;;;;;;6.73;2.33;;;28.70;36.00;;;;;;5035232;28;20923;-45
2022/09/13 12:39:43;;;;;;;2.53;2.33;;;28.70;34.10;;;;;;5035484;28;20408;-46
2022/09/13 12:42:29;;;;;;;5.90;2.63;;;28.60;34.90;;;;;;5035396;28;20424;-46
2022/09/13 12:45:09;;;;;;;3.10;2.40;;;28.60;34.40;;;;;;5035366;28;20466;-47
2022/09/13 12:47:53;;;;;;;2.60;2.40;;;28.60;34.50;;;;;;5034839;28;20404;-46
2022/09/13 12:50:45;;;;;;;5.87;3.07;;;28.50;33.60;;;;;;5035019;28;20544;-46
2022/09/13 12:53:25;;;;;;;3.50;2.20;;;28.40;34.90;;;;;;5035109;28;20405;-43
2022/09/13 12:55:59;;;;;;;2.37;2.17;;;28.30;35.30;;;;;;5034724;28;20408;-46
2022/09/13 12:58:56;;;;;;;2.53;2.33;;;28.20;34.00;;;;;;5034816;28;20405;-45
2022/09/13 13:01:24;;;;;;;3.40;2.77;;;28.20;35.30;;;;;;5035053;28;20487;-46
2022/09/13 13:04:04;;;;;;;3.37;2.80;;;28.10;36.30;;;;;;5035035;28;20413;-45
2022/09/13 13:06:34;;;;;;;2.60;2.00;;;28.10;35.30;;;;;;5034532;28;20427;-44
2022/09/13 13:09:20;;;;;;;5.43;2.80;;;28.00;35.30;;;;;;5034753;28;20539;-45
2022/09/13 13:11:48;;;;;;;3.17;2.73;;;28.00;35.90;;;;;;5034660;28;20958;-45
2022/09/13 13:14:38;;;;;;;3.80;2.50;;;27.90;35.20;;;;;;5034854;28;20409;-43
2022/09/13 13:17:33;;;;;;;2.97;2.77;;;27.90;35.40;;;;;;5034233;28;20815;-46
2022/09/13 13:20:00;;;;;;;2.80;2.50;;;27.90;34.40;;;;;;5034655;28;20474;-47